sensor_id;sensor_type;location;lat;lon;timestamp;pressure;altitude;pressure_sealevel;temperature;humidity
58239;BME280;44037;55.638;37.356;2023-04-27T00:02:24;98426.47;;;9.92;100.00
58239;BME280;44037;55.638;37.356;2023-04-27T00:04:51;98414.44;;;9.88;100.00
58239;BME280;44037;55.638;37.356;2023-04-27T00:07:20;98417.88;;;9.87;100.00
58239;BME280;44037;55.638;37.356;2023-04-27T00:09:47;98412.72;;;9.86;100.00
58239;BME280;44037;55.638;37.356;2023-04-27T00:12:16;98411.00;;;9.84;100.00
58239;BME280;44037;55.638;37.356;2023-04-27T00:14:43;98405.81;;;9.86;100.00
58239;BME280;44037;55.638;37.356;2023-04-27T00:17:10;98403.22;;;9.86;100.00
58239;BME280;44037;55.638;37.356;2023-04-27T00:19:37;98406.66;;;9.88;100.00
58239;BME280;44037;55.638;37.356;2023-04-27T00:22:06;98417.88;;;9.87;100.00
58239;BME280;44037;55.638;37.356;2023-04-27T00:24:35;98422.19;;;9.88;100.00
58239;BME280;44037;55.638;37.356;2023-04-27T00:27:02;98422.22;;;9.87;100.00
58239;BME280;44037;55.638;37.356;2023-04-27T00:29:29;98415.31;;;9.86;100.00
58239;BME280;44037;55.638;37.356;2023-04-27T00:31:56;98413.59;;;9.83;100.00
58239;BME280;44037;55.638;37.356;2023-04-27T00:34:24;98417.94;;;9.81;100.00
58239;BME280;44037;55.638;37.356;2023-04-27T00:36:51;98419.69;;;9.79;100.00
58239;BME280;44037;55.638;37.356;2023-04-27T00:39:18;98418.81;;;9.77;100.00
58239;BME280;44037;55.638;37.356;2023-04-27T00:41:47;98419.72;;;9.73;100.00
58239;BME280;44037;55.638;37.356;2023-04-27T00:44:21;98426.63;;;9.71;100.00
58239;BME280;44037;55.638;37.356;2023-04-27T00:46:48;98426.66;;;9.66;100.00
58239;BME280;44037;55.638;37.356;2023-04-27T00:49:16;98424.94;;;9.63;100.00
58239;BME280;44037;55.638;37.356;2023-04-27T00:51:43;98424.97;;;9.60;100.00
58239;BME280;44037;55.638;37.356;2023-04-27T00:54:11;98425.88;;;9.56;100.00
58239;BME280;44037;55.638;37.356;2023-04-27T00:56:39;98437.06;;;9.55;100.00
58239;BME280;44037;55.638;37.356;2023-04-27T00:59:07;98439.66;;;9.53;100.00
58239;BME280;44037;55.638;37.356;2023-04-27T01:01:35;98435.34;;;9.54;100.00
58239;BME280;44037;55.638;37.356;2023-04-27T01:04:02;98426.75;;;9.52;100.00
58239;BME280;44037;55.638;37.356;2023-04-27T01:06:30;98430.19;;;9.51;100.00
58239;BME280;44037;55.638;37.356;2023-04-27T01:08:57;98425.03;;;9.51;100.00
58239;BME280;44037;55.638;37.356;2023-04-27T01:11:24;98430.19;;;9.51;100.00
58239;BME280;44037;55.638;37.356;2023-04-27T01:13:51;98434.50;;;9.49;100.00
58239;BME280;44037;55.638;37.356;2023-04-27T01:16:21;98424.16;;;9.49;100.00
58239;BME280;44037;55.638;37.356;2023-04-27T01:18:48;98419.03;;;9.47;100.00
58239;BME280;44037;55.638;37.356;2023-04-27T01:21:15;98412.97;;;9.47;100.00
58239;BME280;44037;55.638;37.356;2023-04-27T01:23:43;98416.41;;;9.46;100.00
58239;BME280;44037;55.638;37.356;2023-04-27T01:26:11;98412.97;;;9.48;100.00
58239;BME280;44037;55.638;37.356;2023-04-27T01:28:40;98406.94;;;9.48;100.00
58239;BME280;44037;55.638;37.356;2023-04-27T01:31:09;98412.97;;;9.48;100.00
58239;BME280;44037;55.638;37.356;2023-04-27T01:33:37;98411.25;;;9.49;100.00
58239;BME280;44037;55.638;37.356;2023-04-27T01:36:04;98411.25;;;9.49;100.00
58239;BME280;44037;55.638;37.356;2023-04-27T01:38:32;98417.28;;;9.49;100.00
58239;BME280;44037;55.638;37.356;2023-04-27T01:41:03;98421.59;;;9.49;100.00
58239;BME280;44037;55.638;37.356;2023-04-27T01:43:30;98419.03;;;9.47;100.00
58239;BME280;44037;55.638;37.356;2023-04-27T01:46:04;98424.19;;;9.46;100.00
58239;BME280;44037;55.638;37.356;2023-04-27T01:48:31;98426.78;;;9.44;100.00
58239;BME280;44037;55.638;37.356;2023-04-27T01:50:59;98425.06;;;9.45;100.00
58239;BME280;44037;55.638;37.356;2023-04-27T01:53:26;98415.56;;;9.47;100.00
58239;BME280;44037;55.638;37.356;2023-04-27T01:55:53;98427.63;;;9.49;100.00
58239;BME280;44037;55.638;37.356;2023-04-27T01:58:22;98425.03;;;9.51;100.00
58239;BME280;44037;55.638;37.356;2023-04-27T02:00:49;98428.47;;;9.53;100.00
58239;BME280;44037;55.638;37.356;2023-04-27T02:03:17;98427.56;;;9.56;100.00
58239;BME280;44037;55.638;37.356;2023-04-27T02:05:44;98430.16;;;9.59;100.00
58239;BME280;44037;55.638;37.356;2023-04-27T02:08:12;98424.97;;;9.62;100.00
58239;BME280;44037;55.638;37.356;2023-04-27T02:10:40;98431.81;;;9.67;100.00
58239;BME280;44037;55.638;37.356;2023-04-27T02:13:07;98436.09;;;9.72;100.00
58239;BME280;44037;55.638;37.356;2023-04-27T02:15:37;98434.38;;;9.75;100.00
58239;BME280;44037;55.638;37.356;2023-04-27T02:18:04;98435.19;;;9.82;100.00
58239;BME280;44037;55.638;37.356;2023-04-27T02:20:32;98446.31;;;9.90;100.00
58239;BME280;44037;55.638;37.356;2023-04-27T02:23:00;98441.09;;;9.98;100.00
58239;BME280;44037;55.638;37.356;2023-04-27T02:25:27;98445.34;;;10.07;100.00
58239;BME280;44037;55.638;37.356;2023-04-27T02:27:55;98447.00;;;10.14;100.00
58239;BME280;44037;55.638;37.356;2023-04-27T02:30:22;98442.63;;;10.24;100.00
58239;BME280;44037;55.638;37.356;2023-04-27T02:32:51;98445.13;;;10.33;100.00
58239;BME280;44037;55.638;37.356;2023-04-27T02:35:18;98445.91;;;10.44;100.00
58239;BME280;44037;55.638;37.356;2023-04-27T02:37:45;98451.84;;;10.56;100.00
58239;BME280;44037;55.638;37.356;2023-04-27T02:40:12;98456.03;;;10.66;100.00
58239;BME280;44037;55.638;37.356;2023-04-27T02:42:39;98453.31;;;10.79;100.00
58239;BME280;44037;55.638;37.356;2023-04-27T02:45:07;98449.75;;;10.90;100.00
58239;BME280;44037;55.638;37.356;2023-04-27T02:47:34;98452.25;;;11.00;100.00
58239;BME280;44037;55.638;37.356;2023-04-27T02:50:03;98458.16;;;11.11;100.00
58239;BME280;44037;55.638;37.356;2023-04-27T02:52:31;98463.28;;;11.17;99.93
58239;BME280;44037;55.638;37.356;2023-04-27T02:54:58;98464.06;;;11.24;99.48
58239;BME280;44037;55.638;37.356;2023-04-27T02:57:26;98474.38;;;11.29;98.87
58239;BME280;44037;55.638;37.356;2023-04-27T02:59:54;98471.75;;;11.30;97.30
58239;BME280;44037;55.638;37.356;2023-04-27T03:02:21;98475.19;;;11.34;96.82
58239;BME280;44037;55.638;37.356;2023-04-27T03:04:51;98478.59;;;11.37;96.40
58239;BME280;44037;55.638;37.356;2023-04-27T03:07:21;98477.69;;;11.40;95.67
58239;BME280;44037;55.638;37.356;2023-04-27T03:09:48;98480.22;;;11.46;95.42
58239;BME280;44037;55.638;37.356;2023-04-27T03:12:15;98478.41;;;11.51;94.59
58239;BME280;44037;55.638;37.356;2023-04-27T03:14:42;98478.34;;;11.58;95.00
58239;BME280;44037;55.638;37.356;2023-04-27T03:17:09;98481.66;;;11.66;94.52
58239;BME280;44037;55.638;37.356;2023-04-27T03:19:37;98479.88;;;11.71;94.24
58239;BME280;44037;55.638;37.356;2023-04-27T03:22:04;98485.84;;;11.76;93.81
58239;BME280;44037;55.638;37.356;2023-04-27T03:24:32;98484.06;;;11.80;93.10
58239;BME280;44037;55.638;37.356;2023-04-27T03:26:59;98487.50;;;11.83;92.96
58239;BME280;44037;55.638;37.356;2023-04-27T03:29:27;98491.75;;;11.88;92.96
58239;BME280;44037;55.638;37.356;2023-04-27T03:31:55;98495.09;;;11.94;92.43
58239;BME280;44037;55.638;37.356;2023-04-27T03:34:22;98495.94;;;11.98;92.56
58239;BME280;44037;55.638;37.356;2023-04-27T03:36:49;98502.81;;;12.02;92.18
58239;BME280;44037;55.638;37.356;2023-04-27T03:39:16;98505.34;;;12.08;92.09
58239;BME280;44037;55.638;37.356;2023-04-27T03:41:45;98511.22;;;12.18;91.73
58239;BME280;44037;55.638;37.356;2023-04-27T03:44:12;98514.66;;;12.22;93.13
58239;BME280;44037;55.638;37.356;2023-04-27T03:46:39;98511.34;;;12.10;95.12
58239;BME280;44037;55.638;37.356;2023-04-27T03:49:07;98514.09;;;12.00;96.86
58239;BME280;44037;55.638;37.356;2023-04-27T03:51:34;98513.28;;;11.94;99.06
58239;BME280;44037;55.638;37.356;2023-04-27T03:54:03;98519.34;;;11.93;100.00
58239;BME280;44037;55.638;37.356;2023-04-27T03:56:30;98520.19;;;11.97;100.00
58239;BME280;44037;55.638;37.356;2023-04-27T03:58:58;98516.66;;;12.03;100.00
58239;BME280;44037;55.638;37.356;2023-04-27T04:01:25;98519.13;;;12.12;100.00
58239;BME280;44037;55.638;37.356;2023-04-27T04:03:53;98525.88;;;12.22;100.00
58239;BME280;44037;55.638;37.356;2023-04-27T04:06:20;98526.59;;;12.32;100.00
58239;BME280;44037;55.638;37.356;2023-04-27T04:08:47;98522.09;;;12.42;100.00
58239;BME280;44037;55.638;37.356;2023-04-27T04:11:14;98527.94;;;12.56;100.00
58239;BME280;44037;55.638;37.356;2023-04-27T04:13:41;98524.25;;;12.70;100.00
58239;BME280;44037;55.638;37.356;2023-04-27T04:16:10;98516.25;;;12.81;100.00
58239;BME280;44037;55.638;37.356;2023-04-27T04:18:38;98521.25;;;12.93;100.00
58239;BME280;44037;55.638;37.356;2023-04-27T04:21:05;98525.34;;;13.05;100.00
58239;BME280;44037;55.638;37.356;2023-04-27T04:23:33;98516.50;;;13.14;100.00
58239;BME280;44037;55.638;37.356;2023-04-27T04:26:00;98517.25;;;13.22;100.00
58239;BME280;44037;55.638;37.356;2023-04-27T04:28:28;98517.91;;;13.32;99.87
58239;BME280;44037;55.638;37.356;2023-04-27T04:30:55;98523.81;;;13.42;98.76
58239;BME280;44037;55.638;37.356;2023-04-27T04:33:25;98527.88;;;13.55;98.35
58239;BME280;44037;55.638;37.356;2023-04-27T04:35:52;98522.38;;;13.69;97.48
58239;BME280;44037;55.638;37.356;2023-04-27T04:38:19;98527.28;;;13.83;96.06
58239;BME280;44037;55.638;37.356;2023-04-27T04:40:48;98530.47;;;13.97;95.64
58239;BME280;44037;55.638;37.356;2023-04-27T04:43:17;98529.28;;;14.11;94.42
58239;BME280;44037;55.638;37.356;2023-04-27T04:45:44;98524.59;;;14.25;93.93
58239;BME280;44037;55.638;37.356;2023-04-27T04:48:13;98529.44;;;14.41;92.95
58239;BME280;44037;55.638;37.356;2023-04-27T04:50:42;98529.00;;;14.59;91.25
58239;BME280;44037;55.638;37.356;2023-04-27T04:53:09;98522.56;;;14.74;89.88
58239;BME280;44037;55.638;37.356;2023-04-27T04:55:36;98529.94;;;14.92;89.19
58239;BME280;44037;55.638;37.356;2023-04-27T04:58:04;98533.00;;;15.08;87.68
58239;BME280;44037;55.638;37.356;2023-04-27T05:00:31;98530.84;;;15.24;86.28
58239;BME280;44037;55.638;37.356;2023-04-27T05:02:58;98529.56;;;15.39;84.68
58239;BME280;44037;55.638;37.356;2023-04-27T05:05:25;98536.09;;;15.54;82.94
58239;BME280;44037;55.638;37.356;2023-04-27T05:07:54;98538.41;;;15.64;81.74
58239;BME280;44037;55.638;37.356;2023-04-27T05:10:21;98534.59;;;15.75;81.06
58239;BME280;44037;55.638;37.356;2023-04-27T05:12:48;98533.47;;;15.84;80.16
58239;BME280;44037;55.638;37.356;2023-04-27T05:15:15;98531.53;;;15.92;79.71
58239;BME280;44037;55.638;37.356;2023-04-27T05:17:43;98534.78;;;16.00;79.41
58239;BME280;44037;55.638;37.356;2023-04-27T05:20:10;98537.00;;;16.12;77.86
58239;BME280;44037;55.638;37.356;2023-04-27T05:22:37;98538.31;;;16.26;77.19
58239;BME280;44037;55.638;37.356;2023-04-27T05:25:07;98537.91;;;16.38;75.93
58239;BME280;44037;55.638;37.356;2023-04-27T05:27:34;98534.00;;;16.52;74.74
58239;BME280;44037;55.638;37.356;2023-04-27T05:30:02;98531.84;;;16.65;73.94
58239;BME280;44037;55.638;37.356;2023-04-27T05:32:31;98535.75;;;16.78;72.67
58239;BME280;44037;55.638;37.356;2023-04-27T05:35:01;98530.09;;;16.91;71.66
58239;BME280;44037;55.638;37.356;2023-04-27T05:37:29;98525.38;;;17.02;71.03
58239;BME280;44037;55.638;37.356;2023-04-27T05:39:56;98524.22;;;17.11;70.40
58239;BME280;44037;55.638;37.356;2023-04-27T05:42:25;98540.41;;;17.20;70.33
58239;BME280;44037;55.638;37.356;2023-04-27T05:44:52;98538.41;;;17.29;69.60
58239;BME280;44037;55.638;37.356;2023-04-27T05:47:19;98542.47;;;17.38;69.15
58239;BME280;44037;55.638;37.356;2023-04-27T05:49:49;98539.44;;;17.48;68.21
58239;BME280;44037;55.638;37.356;2023-04-27T05:52:17;98545.13;;;17.60;67.51
58239;BME280;44037;55.638;37.356;2023-04-27T05:54:46;98542.19;;;17.69;66.67
58239;BME280;44037;55.638;37.356;2023-04-27T05:57:13;98541.94;;;17.75;65.43
58239;BME280;44037;55.638;37.356;2023-04-27T05:59:42;98542.63;;;17.80;64.51
58239;BME280;44037;55.638;37.356;2023-04-27T06:02:09;98542.38;;;17.87;63.00
58239;BME280;44037;55.638;37.356;2023-04-27T06:04:36;98538.66;;;17.92;62.26
58239;BME280;44037;55.638;37.356;2023-04-27T06:07:07;98536.75;;;17.98;62.07
58239;BME280;44037;55.638;37.356;2023-04-27T06:09:34;98540.91;;;18.03;61.61
58239;BME280;44037;55.638;37.356;2023-04-27T06:12:02;98538.03;;;18.09;61.11
58239;BME280;44037;55.638;37.356;2023-04-27T06:14:29;98545.59;;;18.17;60.46
58239;BME280;44037;55.638;37.356;2023-04-27T06:16:58;98538.44;;;18.22;60.17
58239;BME280;44037;55.638;37.356;2023-04-27T06:19:25;98541.69;;;18.27;59.98
58239;BME280;44037;55.638;37.356;2023-04-27T06:21:53;98540.78;;;18.29;59.73
58239;BME280;44037;55.638;37.356;2023-04-27T06:24:21;98535.38;;;18.33;60.07
58239;BME280;44037;55.638;37.356;2023-04-27T06:26:48;98533.41;;;18.38;59.26
58239;BME280;44037;55.638;37.356;2023-04-27T06:29:15;98537.56;;;18.44;59.09
58239;BME280;44037;55.638;37.356;2023-04-27T06:31:42;98542.50;;;18.52;58.45
58239;BME280;44037;55.638;37.356;2023-04-27T06:34:11;98532.59;;;18.58;57.86
58239;BME280;44037;55.638;37.356;2023-04-27T06:36:38;98537.59;;;18.65;56.86
58239;BME280;44037;55.638;37.356;2023-04-27T06:39:05;98543.69;;;18.65;56.38
58239;BME280;44037;55.638;37.356;2023-04-27T06:41:32;98540.94;;;18.68;57.05
58239;BME280;44037;55.638;37.356;2023-04-27T06:43:59;98540.03;;;18.69;55.73
58239;BME280;44037;55.638;37.356;2023-04-27T06:46:27;98544.28;;;18.72;56.39
58239;BME280;44037;55.638;37.356;2023-04-27T06:48:54;98551.13;;;18.76;56.50
58239;BME280;44037;55.638;37.356;2023-04-27T06:51:22;98549.94;;;18.83;56.22
58239;BME280;44037;55.638;37.356;2023-04-27T06:53:50;98546.91;;;18.93;56.25
58239;BME280;44037;55.638;37.356;2023-04-27T06:56:17;98554.50;;;19.00;56.44
58239;BME280;44037;55.638;37.356;2023-04-27T06:58:44;98553.38;;;19.06;56.82
58239;BME280;44037;55.638;37.356;2023-04-27T07:01:11;98553.13;;;19.12;56.51
58239;BME280;44037;55.638;37.356;2023-04-27T07:03:38;98557.31;;;19.16;56.68
58239;BME280;44037;55.638;37.356;2023-04-27T07:06:06;98562.38;;;19.21;57.56
58239;BME280;44037;55.638;37.356;2023-04-27T07:08:34;98560.38;;;19.26;57.17
58239;BME280;44037;55.638;37.356;2023-04-27T07:11:02;98550.59;;;19.30;56.90
58239;BME280;44037;55.638;37.356;2023-04-27T07:13:29;98550.56;;;19.31;55.91
58239;BME280;44037;55.638;37.356;2023-04-27T07:15:56;98552.47;;;19.28;56.74
58239;BME280;44037;55.638;37.356;2023-04-27T07:18:23;98555.84;;;19.30;57.03
58239;BME280;44037;55.638;37.356;2023-04-27T07:20:52;98553.22;;;19.30;57.29
58239;BME280;44037;55.638;37.356;2023-04-27T07:23:20;98550.47;;;19.33;56.61
58239;BME280;44037;55.638;37.356;2023-04-27T07:25:48;98559.22;;;19.33;57.39
58239;BME280;44037;55.638;37.356;2023-04-27T07:28:16;98557.22;;;19.39;56.46
58239;BME280;44037;55.638;37.356;2023-04-27T07:30:44;98553.75;;;19.38;56.10
58239;BME280;44037;55.638;37.356;2023-04-27T07:33:12;98546.66;;;19.40;56.82
58239;BME280;44037;55.638;37.356;2023-04-27T07:35:40;98554.34;;;19.45;56.38
58239;BME280;44037;55.638;37.356;2023-04-27T07:38:07;98561.09;;;19.51;56.46
58239;BME280;44037;55.638;37.356;2023-04-27T07:40:34;98555.56;;;19.57;56.16
58239;BME280;44037;55.638;37.356;2023-04-27T07:43:03;98564.88;;;19.64;56.35
58239;BME280;44037;55.638;37.356;2023-04-27T07:45:30;98562.88;;;19.69;55.88
58239;BME280;44037;55.638;37.356;2023-04-27T07:47:58;98558.63;;;19.67;55.67
58239;BME280;44037;55.638;37.356;2023-04-27T07:50:28;98560.38;;;19.66;55.76
58239;BME280;44037;55.638;37.356;2023-04-27T07:52:55;98565.59;;;19.68;53.61
58239;BME280;44037;55.638;37.356;2023-04-27T07:55:23;98565.84;;;19.61;53.36
58239;BME280;44037;55.638;37.356;2023-04-27T07:57:51;98566.13;;;19.55;53.75
58239;BME280;44037;55.638;37.356;2023-04-27T08:00:20;98569.56;;;19.57;55.46
58239;BME280;44037;55.638;37.356;2023-04-27T08:02:48;98559.53;;;19.65;55.54
58239;BME280;44037;55.638;37.356;2023-04-27T08:05:16;98561.13;;;19.70;53.64
58239;BME280;44037;55.638;37.356;2023-04-27T08:07:43;98564.00;;;19.63;53.04
58239;BME280;44037;55.638;37.356;2023-04-27T08:10:10;98559.03;;;19.57;54.00
58239;BME280;44037;55.638;37.356;2023-04-27T08:12:37;98556.34;;;19.59;54.38
58239;BME280;44037;55.638;37.356;2023-04-27T08:15:05;98563.44;;;19.57;53.64
58239;BME280;44037;55.638;37.356;2023-04-27T08:17:34;98563.72;;;19.51;54.63
58239;BME280;44037;55.638;37.356;2023-04-27T08:20:04;98562.72;;;19.53;54.68
58239;BME280;44037;55.638;37.356;2023-04-27T08:22:33;98566.28;;;19.71;53.97
58239;BME280;44037;55.638;37.356;2023-04-27T08:25:00;98566.47;;;20.06;52.06
58239;BME280;44037;55.638;37.356;2023-04-27T08:27:29;98565.59;;;20.25;50.48
58239;BME280;44037;55.638;37.356;2023-04-27T08:29:56;98562.66;;;20.31;51.09
58239;BME280;44037;55.638;37.356;2023-04-27T08:32:25;98569.59;;;20.51;52.22
58239;BME280;44037;55.638;37.356;2023-04-27T08:34:54;98560.47;;;20.78;51.18
58239;BME280;44037;55.638;37.356;2023-04-27T08:37:21;98550.38;;;20.86;50.57
58239;BME280;44037;55.638;37.356;2023-04-27T08:39:48;98553.94;;;20.85;51.02
58239;BME280;44037;55.638;37.356;2023-04-27T08:42:16;98556.19;;;20.93;51.86
58239;BME280;44037;55.638;37.356;2023-04-27T08:44:43;98557.19;;;21.08;50.85
58239;BME280;44037;55.638;37.356;2023-04-27T08:47:11;98560.59;;;21.10;48.25
58239;BME280;44037;55.638;37.356;2023-04-27T08:49:38;98560.06;;;21.03;46.14
58239;BME280;44037;55.638;37.356;2023-04-27T08:52:11;98559.84;;;20.90;47.68
58239;BME280;44037;55.638;37.356;2023-04-27T08:54:39;98565.34;;;20.85;47.82
58239;BME280;44037;55.638;37.356;2023-04-27T08:57:10;98575.16;;;20.82;46.19
58239;BME280;44037;55.638;37.356;2023-04-27T08:59:38;98568.53;;;20.73;46.64
58239;BME280;44037;55.638;37.356;2023-04-27T09:02:06;98571.38;;;20.68;46.75
58239;BME280;44037;55.638;37.356;2023-04-27T09:04:44;98572.41;;;20.66;47.38
58239;BME280;44037;55.638;37.356;2023-04-27T09:07:13;98567.00;;;20.69;47.78
58239;BME280;44037;55.638;37.356;2023-04-27T09:09:41;98566.84;;;20.72;47.61
58239;BME280;44037;55.638;37.356;2023-04-27T09:12:13;98565.19;;;20.69;48.02
58239;BME280;44037;55.638;37.356;2023-04-27T09:14:42;98569.69;;;20.67;47.40
58239;BME280;44037;55.638;37.356;2023-04-27T09:17:09;98564.81;;;20.60;47.60
58239;BME280;44037;55.638;37.356;2023-04-27T09:19:37;98566.13;;;20.51;48.40
58239;BME280;44037;55.638;37.356;2023-04-27T09:22:05;98569.53;;;20.53;48.27
58239;BME280;44037;55.638;37.356;2023-04-27T09:24:34;98570.09;;;20.60;48.02
58239;BME280;44037;55.638;37.356;2023-04-27T09:27:02;98567.38;;;20.61;48.39
58239;BME280;44037;55.638;37.356;2023-04-27T09:29:34;98571.63;;;20.64;49.17
58239;BME280;44037;55.638;37.356;2023-04-27T09:32:02;98563.94;;;20.78;48.79
58239;BME280;44037;55.638;37.356;2023-04-27T09:34:40;98567.75;;;20.90;49.42
58239;BME280;44037;55.638;37.356;2023-04-27T09:37:08;98564.78;;;21.14;49.29
58239;BME280;44037;55.638;37.356;2023-04-27T09:39:37;98568.16;;;21.33;48.60
58239;BME280;44037;55.638;37.356;2023-04-27T09:42:05;98563.63;;;21.53;47.97
58239;BME280;44037;55.638;37.356;2023-04-27T09:44:34;98563.94;;;21.65;48.36
58239;BME280;44037;55.638;37.356;2023-04-27T09:47:01;98567.00;;;21.73;48.29
58239;BME280;44037;55.638;37.356;2023-04-27T09:49:28;98563.19;;;21.78;47.70
58239;BME280;44037;55.638;37.356;2023-04-27T09:51:56;98563.94;;;21.81;47.52
58239;BME280;44037;55.638;37.356;2023-04-27T09:54:26;98566.59;;;21.81;47.76
58239;BME280;44037;55.638;37.356;2023-04-27T09:57:05;98562.09;;;21.83;47.74
58239;BME280;44037;55.638;37.356;2023-04-27T09:59:52;98556.16;;;21.79;47.79
58239;BME280;44037;55.638;37.356;2023-04-27T10:02:23;98561.13;;;21.68;47.82
58239;BME280;44037;55.638;37.356;2023-04-27T10:05:15;98559.09;;;21.55;46.95
58239;BME280;44037;55.638;37.356;2023-04-27T10:07:48;98561.59;;;21.58;45.04
58239;BME280;44037;55.638;37.356;2023-04-27T10:10:18;98563.25;;;21.43;45.92
58239;BME280;44037;55.638;37.356;2023-04-27T10:12:56;98569.31;;;21.45;46.44
58239;BME280;44037;55.638;37.356;2023-04-27T10:15:27;98562.00;;;21.51;45.75
58239;BME280;44037;55.638;37.356;2023-04-27T10:17:54;98562.22;;;21.63;45.49
58239;BME280;44037;55.638;37.356;2023-04-27T10:20:30;98566.09;;;21.90;45.01
58239;BME280;44037;55.638;37.356;2023-04-27T10:22:58;98564.31;;;22.06;44.50
58239;BME280;44037;55.638;37.356;2023-04-27T10:25:27;98564.97;;;22.26;44.64
58239;BME280;44037;55.638;37.356;2023-04-27T10:27:58;98563.38;;;22.55;44.24
58239;BME280;44037;55.638;37.356;2023-04-27T10:30:26;98569.66;;;22.83;43.90
58239;BME280;44037;55.638;37.356;2023-04-27T10:32:58;98563.50;;;22.99;42.86
58239;BME280;44037;55.638;37.356;2023-04-27T10:35:33;98567.75;;;23.16;42.25
58239;BME280;44037;55.638;37.356;2023-04-27T10:38:05;98559.78;;;23.32;42.27
58239;BME280;44037;55.638;37.356;2023-04-27T10:40:34;98564.16;;;23.47;41.65
58239;BME280;44037;55.638;37.356;2023-04-27T10:43:10;98570.66;;;23.56;42.08
58239;BME280;44037;55.638;37.356;2023-04-27T10:45:38;98563.03;;;23.66;41.94
58239;BME280;44037;55.638;37.356;2023-04-27T10:48:06;98561.03;;;23.70;41.37
58239;BME280;44037;55.638;37.356;2023-04-27T10:50:33;98553.84;;;23.72;41.46
58239;BME280;44037;55.638;37.356;2023-04-27T10:53:03;98564.50;;;23.70;41.30
58239;BME280;44037;55.638;37.356;2023-04-27T10:55:31;98559.72;;;23.62;40.46
58239;BME280;44037;55.638;37.356;2023-04-27T10:57:58;98556.59;;;23.70;40.97
58239;BME280;44037;55.638;37.356;2023-04-27T11:00:29;98555.16;;;23.93;40.28
58239;BME280;44037;55.638;37.356;2023-04-27T11:03:07;98560.56;;;24.34;38.88
58239;BME280;44037;55.638;37.356;2023-04-27T11:05:36;98560.53;;;24.61;37.27
58239;BME280;44037;55.638;37.356;2023-04-27T11:08:04;98563.19;;;24.61;36.81
58239;BME280;44037;55.638;37.356;2023-04-27T11:10:32;98564.31;;;24.44;36.96
58239;BME280;44037;55.638;37.356;2023-04-27T11:13:08;98569.09;;;24.25;37.02
58239;BME280;44037;55.638;37.356;2023-04-27T11:15:48;98569.22;;;24.08;37.63
58239;BME280;44037;55.638;37.356;2023-04-27T11:18:16;98563.72;;;24.12;37.18
58239;BME280;44037;55.638;37.356;2023-04-27T11:20:46;98569.81;;;24.27;37.53
58239;BME280;44037;55.638;37.356;2023-04-27T11:23:22;98566.63;;;24.49;36.94
58239;BME280;44037;55.638;37.356;2023-04-27T11:25:49;98562.59;;;24.71;37.54
58239;BME280;44037;55.638;37.356;2023-04-27T11:28:17;98552.16;;;24.95;35.92
58239;BME280;44037;55.638;37.356;2023-04-27T11:30:44;98554.50;;;24.99;36.01
58239;BME280;44037;55.638;37.356;2023-04-27T11:33:13;98565.41;;;24.95;35.32
58239;BME280;44037;55.638;37.356;2023-04-27T11:35:41;98558.19;;;24.84;35.80
58239;BME280;44037;55.638;37.356;2023-04-27T11:38:14;98561.66;;;24.72;36.20
58239;BME280;44037;55.638;37.356;2023-04-27T11:40:42;98555.53;;;24.71;36.21
58239;BME280;44037;55.638;37.356;2023-04-27T11:43:11;98565.06;;;24.74;35.85
58239;BME280;44037;55.638;37.356;2023-04-27T11:45:43;98569.19;;;24.78;35.74
58239;BME280;44037;55.638;37.356;2023-04-27T11:48:14;98562.00;;;24.80;36.35
58239;BME280;44037;55.638;37.356;2023-04-27T11:50:45;98570.16;;;24.90;36.02
58239;BME280;44037;55.638;37.356;2023-04-27T11:53:12;98554.47;;;24.74;35.79
58239;BME280;44037;55.638;37.356;2023-04-27T11:55:40;98558.50;;;24.52;36.89
58239;BME280;44037;55.638;37.356;2023-04-27T11:58:13;98560.25;;;24.38;36.56
58239;BME280;44037;55.638;37.356;2023-04-27T12:00:40;98554.16;;;24.23;36.99
58239;BME280;44037;55.638;37.356;2023-04-27T12:03:07;98554.69;;;24.01;36.76
58239;BME280;44037;55.638;37.356;2023-04-27T12:05:46;98544.03;;;23.74;37.97
58239;BME280;44037;55.638;37.356;2023-04-27T12:08:13;98549.81;;;23.52;37.80
58239;BME280;44037;55.638;37.356;2023-04-27T12:10:40;98542.28;;;23.15;37.77
58239;BME280;44037;55.638;37.356;2023-04-27T12:13:08;98546.00;;;22.82;38.00
58239;BME280;44037;55.638;37.356;2023-04-27T12:15:35;98550.19;;;22.55;38.46
58239;BME280;44037;55.638;37.356;2023-04-27T12:18:02;98548.66;;;22.51;38.72
58239;BME280;44037;55.638;37.356;2023-04-27T12:20:29;98542.19;;;22.41;38.90
58239;BME280;44037;55.638;37.356;2023-04-27T12:22:58;98544.63;;;22.44;39.29
58239;BME280;44037;55.638;37.356;2023-04-27T12:25:25;98536.03;;;22.40;39.16
58239;BME280;44037;55.638;37.356;2023-04-27T12:27:53;98542.25;;;22.39;39.56
58239;BME280;44037;55.638;37.356;2023-04-27T12:30:22;98541.41;;;22.39;39.58
58239;BME280;44037;55.638;37.356;2023-04-27T12:32:50;98535.53;;;22.34;39.83
58239;BME280;44037;55.638;37.356;2023-04-27T12:35:17;98534.84;;;22.46;39.25
58239;BME280;44037;55.638;37.356;2023-04-27T12:37:44;98534.84;;;22.46;38.97
58239;BME280;44037;55.638;37.356;2023-04-27T12:40:14;98521.22;;;22.38;39.24
58239;BME280;44037;55.638;37.356;2023-04-27T12:42:41;98537.31;;;22.49;39.43
58239;BME280;44037;55.638;37.356;2023-04-27T12:45:09;98529.75;;;22.43;39.55
58239;BME280;44037;55.638;37.356;2023-04-27T12:47:36;98529.41;;;22.49;39.59
58239;BME280;44037;55.638;37.356;2023-04-27T12:50:05;98528.38;;;22.52;39.48
58239;BME280;44037;55.638;37.356;2023-04-27T12:52:34;98531.44;;;22.44;39.01
58239;BME280;44037;55.638;37.356;2023-04-27T12:55:01;98518.34;;;22.27;39.59
58239;BME280;44037;55.638;37.356;2023-04-27T12:57:31;98526.22;;;21.96;40.55